createdAt,value
2023-04-20T00:00:50.594Z,5.40
2023-04-20T00:03:21.759Z,5.36
2023-04-20T00:05:50.496Z,5.30
2023-04-20T00:08:18.724Z,5.31
2023-04-20T00:10:46.757Z,5.28
2023-04-20T00:13:14.846Z,5.30
2023-04-20T00:15:42.604Z,5.32
2023-04-20T00:18:10.664Z,5.33
2023-04-20T00:20:40.149Z,5.32
2023-04-20T00:23:08.117Z,5.30
2023-04-20T00:25:36.080Z,5.29
2023-04-20T00:28:04.195Z,5.27
2023-04-20T00:30:32.088Z,5.24
2023-04-20T00:33:00.120Z,5.20
2023-04-20T00:35:28.211Z,5.14
2023-04-20T00:37:57.466Z,5.17
2023-04-20T00:40:25.376Z,5.11
2023-04-20T00:42:53.158Z,5.09
2023-04-20T00:45:22.384Z,5.08
2023-04-20T00:47:50.325Z,5.05
2023-04-20T00:50:18.640Z,4.96
2023-04-20T00:52:47.060Z,4.90
2023-04-20T00:55:16.246Z,4.85
2023-04-20T00:57:44.423Z,4.76
2023-04-20T01:00:13.230Z,4.67
2023-04-20T01:02:41.506Z,4.59
2023-04-20T01:05:09.534Z,4.54
2023-04-20T01:07:37.926Z,4.51
2023-04-20T01:10:07.203Z,4.51
2023-04-20T01:12:36.762Z,4.47
2023-04-20T01:15:05.928Z,4.46
2023-04-20T01:17:34.849Z,4.45
2023-04-20T01:20:02.702Z,4.42
2023-04-20T01:22:32.295Z,4.42
2023-04-20T01:25:00.110Z,4.32
2023-04-20T01:27:28.003Z,4.40
2023-04-20T01:29:56.248Z,4.39
2023-04-20T01:32:24.334Z,4.36
2023-04-20T01:34:52.612Z,4.35
2023-04-20T01:37:20.551Z,4.33
2023-04-20T01:39:49.847Z,4.28
2023-04-20T01:42:18.070Z,4.25
2023-04-20T01:44:46.047Z,4.17
2023-04-20T01:47:13.885Z,4.24
2023-04-20T01:49:41.942Z,4.21
2023-04-20T01:52:10.758Z,4.21
2023-04-20T01:54:38.610Z,4.17
2023-04-20T01:57:07.880Z,4.15
2023-04-20T01:59:36.052Z,4.18
2023-04-20T02:02:04.233Z,4.05
2023-04-20T02:04:32.156Z,4.20
2023-04-20T02:07:00.332Z,4.18
2023-04-20T02:09:28.211Z,4.18
2023-04-20T02:11:56.893Z,4.16
2023-04-20T02:14:26.843Z,4.18
2023-04-20T02:16:55.033Z,4.16
2023-04-20T02:19:22.905Z,4.15
2023-04-20T02:21:50.742Z,4.18
2023-04-20T02:24:18.716Z,4.18
2023-04-20T02:26:46.491Z,4.18
2023-04-20T02:29:14.534Z,4.17
2023-04-20T02:31:44.052Z,4.18
2023-04-20T02:34:11.947Z,4.19
2023-04-20T02:36:40.018Z,4.18
2023-04-20T02:39:08.016Z,4.16
2023-04-20T02:41:35.869Z,4.17
2023-04-20T02:44:03.964Z,4.17
2023-04-20T02:46:33.036Z,4.16
2023-04-20T02:49:03.451Z,4.17
2023-04-20T02:51:31.551Z,4.12
2023-04-20T02:53:59.399Z,4.11
2023-04-20T02:56:27.158Z,4.10
2023-04-20T02:58:55.515Z,4.09
2023-04-20T03:01:23.467Z,4.05
2023-04-20T03:03:51.896Z,4.05
2023-04-20T03:06:21.668Z,4.00
2023-04-20T03:08:49.684Z,3.95
2023-04-20T03:11:17.423Z,3.93
2023-04-20T03:13:45.605Z,3.87
2023-04-20T03:16:13.441Z,3.84
2023-04-20T03:18:41.406Z,3.82
2023-04-20T03:21:09.529Z,3.78
2023-04-20T03:23:38.941Z,3.75
2023-04-20T03:26:07.243Z,3.73
2023-04-20T03:28:35.415Z,3.73
2023-04-20T03:31:03.459Z,3.75
2023-04-20T03:33:31.598Z,3.72
2023-04-20T03:35:59.592Z,3.73
2023-04-20T03:38:27.687Z,3.72
2023-04-20T03:40:56.921Z,3.70
2023-04-20T03:43:25.074Z,3.71
2023-04-20T03:45:52.913Z,3.71
2023-04-20T03:48:20.727Z,3.71
2023-04-20T03:50:48.692Z,3.75
2023-04-20T03:53:16.490Z,3.75
2023-04-20T03:55:44.232Z,3.72
2023-04-20T03:58:13.700Z,3.73
2023-04-20T04:00:41.800Z,3.77
2023-04-20T04:03:09.935Z,3.74
2023-04-20T04:05:38.353Z,3.73
2023-04-20T04:08:06.623Z,3.70
2023-04-20T04:10:34.425Z,3.70
2023-04-20T04:13:02.531Z,3.69
2023-04-20T04:15:32.162Z,3.68
2023-04-20T04:18:00.083Z,3.65
2023-04-20T04:20:28.057Z,3.64
2023-04-20T04:22:56.011Z,3.62
2023-04-20T04:25:24.406Z,3.61
2023-04-20T04:27:53.191Z,3.59
2023-04-20T04:30:21.371Z,3.56
2023-04-20T04:32:50.938Z,3.51
2023-04-20T04:35:19.171Z,3.48
2023-04-20T04:37:47.576Z,3.52
2023-04-20T04:40:16.214Z,3.53
2023-04-20T04:42:45.601Z,3.49
2023-04-20T04:45:13.681Z,3.45
2023-04-20T04:47:42.282Z,3.42
2023-04-20T04:50:13.097Z,3.38
2023-04-20T04:52:41.268Z,3.40
2023-04-20T04:55:10.067Z,3.35
2023-04-20T04:57:38.792Z,3.34
2023-04-20T05:00:09.716Z,3.33
2023-04-20T05:02:37.642Z,3.35
2023-04-20T05:05:09.452Z,3.32
2023-04-20T05:07:40.301Z,3.31
2023-04-20T05:10:09.774Z,3.16
2023-04-20T05:12:37.687Z,3.29
2023-04-20T05:15:06.575Z,3.29
2023-04-20T05:17:35.630Z,3.29
2023-04-20T05:20:04.191Z,3.30
2023-04-20T05:22:33.164Z,3.33
2023-04-20T05:25:02.843Z,3.39
2023-04-20T05:27:30.778Z,3.43
2023-04-20T05:30:09.492Z,3.48
2023-04-20T05:32:47.716Z,3.56
2023-04-20T05:35:17.231Z,3.61
2023-04-20T05:37:45.099Z,3.68
2023-04-20T05:40:15.243Z,3.68
2023-04-20T05:42:43.040Z,3.66
2023-04-20T05:45:12.759Z,3.67
2023-04-20T05:47:40.624Z,3.70
2023-04-20T05:50:10.186Z,3.67
2023-04-20T05:52:38.170Z,3.69
2023-04-20T05:55:06.770Z,3.67
2023-04-20T05:57:41.856Z,3.67
2023-04-20T06:00:11.673Z,3.70
2023-04-20T06:02:39.637Z,3.68
2023-04-20T06:05:09.422Z,3.71
2023-04-20T06:07:37.334Z,3.72
2023-04-20T06:10:06.195Z,3.78
2023-04-20T06:12:35.350Z,3.73
2023-04-20T06:15:04.806Z,3.76
2023-04-20T06:17:32.516Z,3.82
2023-04-20T06:20:00.277Z,3.87
2023-04-20T06:22:28.196Z,3.94
2023-04-20T06:24:56.001Z,4.02
2023-04-20T06:27:23.724Z,4.05
2023-04-20T06:29:53.374Z,4.04
2023-04-20T06:32:21.150Z,4.00
2023-04-20T06:34:48.952Z,3.97
2023-04-20T06:37:16.682Z,3.96
2023-04-20T06:39:44.429Z,4.04
2023-04-20T06:42:12.164Z,3.98
2023-04-20T06:44:39.983Z,4.03
2023-04-20T06:47:09.244Z,4.08
2023-04-20T06:49:39.250Z,4.01
2023-04-20T06:52:07.082Z,4.07
2023-04-20T06:54:34.878Z,4.12
2023-04-20T06:57:02.598Z,3.97
2023-04-20T06:59:30.406Z,4.11
2023-04-20T07:01:58.349Z,4.18
2023-04-20T07:04:27.659Z,4.25
2023-04-20T07:06:55.466Z,4.24
2023-04-20T07:09:23.422Z,4.31
2023-04-20T07:11:51.156Z,4.32
2023-04-20T07:14:18.975Z,4.27
2023-04-20T07:16:46.881Z,4.23
2023-04-20T07:19:14.743Z,4.22
2023-04-20T07:21:43.856Z,4.20
2023-04-20T07:24:11.647Z,4.28
2023-04-20T07:26:39.516Z,4.19
2023-04-20T07:29:07.289Z,4.25
2023-04-20T07:31:35.536Z,4.31
2023-04-20T07:34:03.525Z,4.23
2023-04-20T07:36:31.275Z,4.30
2023-04-20T07:39:00.421Z,4.38
2023-04-20T07:41:28.261Z,4.40
2023-04-20T07:43:56.010Z,4.49
2023-04-20T07:46:24.296Z,4.51
2023-04-20T07:48:52.170Z,4.50
2023-04-20T07:51:19.888Z,4.50
2023-04-20T07:53:47.937Z,4.25
2023-04-20T07:56:17.064Z,4.50
2023-04-20T07:58:44.852Z,4.53
2023-04-20T08:01:12.621Z,4.52
2023-04-20T08:03:41.770Z,4.57
2023-04-20T08:06:10.518Z,4.50
2023-04-20T08:08:38.271Z,4.42
2023-04-20T08:11:08.094Z,4.33
2023-04-20T08:13:37.862Z,4.29
2023-04-20T08:16:06.197Z,4.31
2023-04-20T08:18:34.048Z,4.35
2023-04-20T08:21:01.927Z,4.38
2023-04-20T08:23:29.804Z,4.41
2023-04-20T08:25:58.149Z,4.43
2023-04-20T08:28:33.450Z,4.57
2023-04-20T08:31:03.318Z,4.60
2023-04-20T08:33:31.145Z,4.66
2023-04-20T08:35:58.923Z,4.71
2023-04-20T08:38:33.731Z,4.90
2023-04-20T08:41:02.490Z,5.09
2023-04-20T08:43:30.457Z,5.31
2023-04-20T08:46:00.088Z,5.52
2023-04-20T08:48:35.466Z,5.52
2023-04-20T08:51:03.937Z,5.39
2023-04-20T08:53:31.979Z,5.66
2023-04-20T08:55:59.897Z,5.58
2023-04-20T08:58:32.229Z,5.55
2023-04-20T09:01:00.731Z,5.54
2023-04-20T09:03:37.224Z,5.50
2023-04-20T09:06:06.017Z,5.51
2023-04-20T09:08:37.780Z,5.50
2023-04-20T09:11:05.689Z,5.57
2023-04-20T09:13:33.603Z,5.66
2023-04-20T09:16:11.167Z,5.65
2023-04-20T09:18:40.616Z,5.71
2023-04-20T09:21:12.429Z,5.86
2023-04-20T09:23:40.311Z,5.99
2023-04-20T09:26:08.072Z,6.13
2023-04-20T09:28:40.065Z,6.33
2023-04-20T09:31:07.801Z,6.63
2023-04-20T09:33:36.784Z,6.86
2023-04-20T09:36:06.949Z,7.10
2023-04-20T09:38:34.764Z,7.17
2023-04-20T09:41:02.861Z,7.21
2023-04-20T09:43:31.410Z,7.31
2023-04-20T09:45:59.362Z,7.46
2023-04-20T09:48:27.205Z,7.60
2023-04-20T09:50:55.188Z,7.86
2023-04-20T09:53:24.501Z,7.81
2023-04-20T09:55:52.454Z,7.83
2023-04-20T09:58:21.388Z,8.02
2023-04-20T10:00:49.681Z,8.26
2023-04-20T10:03:19.179Z,8.34
2023-04-20T10:05:47.139Z,8.52
2023-04-20T10:08:14.967Z,8.59
2023-04-20T10:10:48.617Z,8.78
2023-04-20T10:13:19.436Z,8.88
2023-04-20T10:15:47.609Z,8.94
2023-04-20T10:18:19.982Z,9.05
2023-04-20T10:20:48.282Z,9.28
2023-04-20T10:23:18.482Z,9.40
2023-04-20T10:25:58.328Z,9.58
2023-04-20T10:28:26.253Z,9.54
2023-04-20T10:30:54.580Z,9.47
2023-04-20T10:33:22.858Z,9.63
2023-04-20T10:35:54.666Z,9.80
2023-04-20T10:38:30.534Z,9.86
2023-04-20T10:41:07.145Z,9.96
2023-04-20T10:43:35.532Z,9.94
2023-04-20T10:46:03.350Z,10.33
2023-04-20T10:48:31.400Z,10.83
2023-04-20T10:50:59.195Z,10.93
2023-04-20T10:53:27.245Z,11.02
2023-04-20T10:56:06.051Z,10.96
2023-04-20T10:58:33.876Z,11.11
2023-04-20T11:01:03.306Z,11.49
2023-04-20T11:03:32.092Z,11.94
2023-04-20T11:06:01.662Z,12.22
2023-04-20T11:08:42.274Z,12.56
2023-04-20T11:11:20.962Z,12.14
2023-04-20T11:13:49.032Z,11.68
2023-04-20T11:16:18.814Z,12.27
2023-04-20T11:18:51.952Z,12.62
2023-04-20T11:21:19.931Z,12.82
2023-04-20T11:23:47.941Z,12.49
2023-04-20T11:26:15.924Z,12.85
2023-04-20T11:28:55.574Z,12.80
2023-04-20T11:31:24.333Z,12.49
2023-04-20T11:33:52.412Z,12.98
2023-04-20T11:36:21.496Z,13.63
2023-04-20T11:38:49.793Z,13.29
2023-04-20T11:41:18.352Z,13.02
2023-04-20T11:43:46.641Z,12.90
2023-04-20T11:46:18.015Z,12.49
2023-04-20T11:48:46.404Z,12.44
2023-04-20T11:51:14.685Z,12.30
2023-04-20T11:53:42.701Z,11.90
2023-04-20T11:56:10.727Z,11.87
2023-04-20T11:58:38.663Z,11.91
2023-04-20T12:01:06.849Z,12.03
2023-04-20T12:03:37.068Z,12.51
2023-04-20T12:06:05.418Z,13.25
2023-04-20T12:08:33.283Z,12.55
2023-04-20T12:11:01.339Z,12.10
2023-04-20T12:13:29.360Z,12.48
2023-04-20T12:15:57.171Z,12.94
2023-04-20T12:18:25.365Z,12.78
2023-04-20T12:20:54.941Z,13.28
2023-04-20T12:23:22.903Z,13.29
2023-04-20T12:25:50.717Z,13.02
2023-04-20T12:28:19.277Z,13.68
2023-04-20T12:30:47.414Z,13.99
2023-04-20T12:33:15.267Z,13.93
2023-04-20T12:35:43.317Z,14.05
2023-04-20T12:38:14.520Z,13.67
2023-04-20T12:40:43.073Z,13.79
2023-04-20T12:43:11.082Z,13.99
2023-04-20T12:45:38.951Z,13.48
2023-04-20T12:48:07.190Z,13.87
2023-04-20T12:50:35.313Z,14.19
2023-04-20T12:53:03.299Z,14.82
2023-04-20T12:55:32.622Z,14.76
2023-04-20T12:58:00.801Z,14.61
2023-04-20T13:00:28.695Z,14.75
2023-04-20T13:02:56.657Z,14.87
2023-04-20T13:05:24.963Z,14.42
2023-04-20T13:07:53.004Z,14.70
2023-04-20T13:10:20.787Z,14.36
2023-04-20T13:12:51.707Z,14.13
2023-04-20T13:15:31.725Z,14.53
2023-04-20T13:18:06.566Z,14.79
2023-04-20T13:20:34.678Z,15.07
2023-04-20T13:23:02.587Z,15.03
2023-04-20T13:25:32.791Z,14.98
2023-04-20T13:28:03.605Z,14.76
2023-04-20T13:30:31.777Z,14.27
2023-04-20T13:32:59.771Z,13.94
2023-04-20T13:35:27.800Z,14.08
2023-04-20T13:37:56.169Z,13.76
2023-04-20T13:40:23.984Z,13.72
2023-04-20T13:42:51.728Z,14.08
2023-04-20T13:45:21.110Z,14.35
2023-04-20T13:47:49.060Z,14.13
2023-04-20T13:50:16.849Z,14.12
2023-04-20T13:52:45.050Z,13.79
2023-04-20T13:55:12.893Z,13.17
2023-04-20T13:57:40.910Z,13.11
2023-04-20T14:00:10.204Z,12.79
2023-04-20T14:02:39.716Z,12.65
2023-04-20T14:05:08.646Z,12.60
2023-04-20T14:07:36.396Z,12.35
2023-04-20T14:10:04.957Z,11.35
2023-04-20T14:12:33.878Z,11.24
2023-04-20T14:15:02.489Z,11.14
2023-04-20T14:17:31.759Z,11.09
2023-04-20T14:20:01.450Z,10.78
2023-04-20T14:22:34.243Z,11.19
2023-04-20T14:25:02.378Z,11.50
2023-04-20T14:27:30.368Z,11.38
2023-04-20T14:29:58.251Z,11.83
2023-04-20T14:32:26.491Z,11.98
2023-04-20T14:34:54.609Z,11.83
2023-04-20T14:37:24.933Z,11.85
2023-04-20T14:39:52.696Z,11.71
2023-04-20T14:42:21.294Z,11.68
2023-04-20T14:44:49.605Z,11.25
2023-04-20T14:47:17.671Z,11.12
2023-04-20T14:49:45.571Z,11.14
2023-04-20T14:52:13.334Z,11.09
2023-04-20T14:54:42.678Z,11.16
2023-04-20T14:57:11.026Z,11.02
2023-04-20T14:59:41.365Z,10.97
2023-04-20T15:02:09.383Z,10.63
2023-04-20T15:04:37.517Z,10.70
2023-04-20T15:07:06.034Z,10.36
2023-04-20T15:09:34.039Z,10.39
2023-04-20T15:12:04.018Z,10.27
2023-04-20T15:14:31.823Z,10.18
2023-04-20T15:17:00.014Z,10.25
2023-04-20T15:19:27.949Z,10.21
2023-04-20T15:21:55.693Z,10.14
2023-04-20T15:24:23.973Z,10.09
2023-04-20T15:26:51.859Z,10.36
2023-04-20T15:29:21.432Z,10.35
2023-04-20T15:31:50.510Z,10.41
2023-04-20T15:34:18.914Z,10.38
2023-04-20T15:36:47.153Z,10.47
2023-04-20T15:39:15.052Z,10.31
2023-04-20T15:41:43.606Z,10.11
2023-04-20T15:44:11.441Z,9.98
2023-04-20T15:46:41.022Z,9.91
2023-04-20T15:49:08.940Z,9.99
2023-04-20T15:51:37.341Z,10.12
2023-04-20T15:54:05.664Z,10.13
2023-04-20T15:56:33.521Z,9.99
2023-04-20T15:59:01.787Z,10.12
2023-04-20T16:01:29.813Z,10.20
2023-04-20T16:03:59.383Z,10.16
2023-04-20T16:06:27.794Z,10.16
2023-04-20T16:08:57.304Z,10.18
2023-04-20T16:11:25.068Z,10.03
2023-04-20T16:13:55.632Z,9.81
2023-04-20T16:16:23.715Z,9.70
2023-04-20T16:18:52.230Z,9.87
2023-04-20T16:21:22.496Z,9.92
2023-04-20T16:23:53.285Z,9.72
2023-04-20T16:26:21.196Z,9.47
2023-04-20T16:28:49.422Z,9.32
2023-04-20T16:31:17.797Z,9.14
2023-04-20T16:33:46.034Z,9.09
2023-04-20T16:36:16.435Z,9.11
2023-04-20T16:38:45.691Z,9.04
2023-04-20T16:41:14.976Z,8.93
2023-04-20T16:43:43.026Z,8.86
2023-04-20T16:46:13.477Z,8.89
2023-04-20T16:48:41.957Z,8.77
2023-04-20T16:51:09.865Z,8.76
2023-04-20T16:53:37.922Z,8.72
2023-04-20T16:56:08.222Z,8.67
2023-04-20T16:58:37.629Z,8.52
2023-04-20T17:01:06.265Z,8.57
2023-04-20T17:03:34.508Z,8.66
2023-04-20T17:06:07.766Z,8.55
2023-04-20T17:08:37.548Z,8.36
2023-04-20T17:11:07.215Z,8.25
2023-04-20T17:13:35.393Z,8.29
2023-04-20T17:16:03.600Z,8.24
2023-04-20T17:18:34.274Z,8.13
2023-04-20T17:21:02.994Z,8.16
2023-04-20T17:23:31.047Z,8.15
2023-04-20T17:25:59.370Z,8.11
2023-04-20T17:28:28.668Z,7.91
2023-04-20T17:30:56.637Z,8.00
2023-04-20T17:33:24.433Z,8.06
2023-04-20T17:35:52.452Z,8.08
2023-04-20T17:38:20.216Z,8.07
2023-04-20T17:40:48.111Z,8.04
2023-04-20T17:43:16.008Z,7.95
2023-04-20T17:45:45.358Z,7.94
2023-04-20T17:48:13.166Z,7.92
2023-04-20T17:50:40.949Z,7.94
2023-04-20T17:53:08.666Z,7.95
2023-04-20T17:55:36.569Z,7.90
2023-04-20T17:58:04.331Z,7.94
2023-04-20T18:00:32.367Z,7.88
2023-04-20T18:03:01.718Z,7.85
2023-04-20T18:05:29.642Z,7.85
2023-04-20T18:07:57.421Z,7.81
2023-04-20T18:10:25.183Z,7.74
2023-04-20T18:12:53.819Z,7.76
2023-04-20T18:15:21.852Z,7.79
2023-04-20T18:17:50.329Z,7.71
2023-04-20T18:20:19.534Z,7.74
2023-04-20T18:22:50.297Z,7.69
2023-04-20T18:25:18.935Z,7.47
2023-04-20T18:27:46.856Z,7.57
2023-04-20T18:30:14.979Z,7.55
2023-04-20T18:32:43.241Z,7.51
2023-04-20T18:35:11.454Z,7.48
2023-04-20T18:37:40.594Z,7.36
2023-04-20T18:40:09.659Z,7.29
2023-04-20T18:42:37.459Z,7.30
2023-04-20T18:45:06.144Z,7.29
2023-04-20T18:47:34.712Z,7.32
2023-04-20T18:50:02.568Z,7.31
2023-04-20T18:52:33.170Z,7.28
2023-04-20T18:55:02.694Z,7.16
2023-04-20T18:57:30.582Z,7.22
2023-04-20T18:59:58.324Z,7.16
2023-04-20T19:02:26.309Z,7.18
2023-04-20T19:04:54.182Z,7.18
2023-04-20T19:07:22.004Z,7.12
2023-04-20T19:09:49.838Z,7.11
2023-04-20T19:12:19.108Z,7.05
2023-04-20T19:14:49.120Z,6.99
2023-04-20T19:17:17.284Z,6.82
2023-04-20T19:19:45.689Z,6.66
2023-04-20T19:22:13.450Z,6.66
2023-04-20T19:24:41.229Z,6.50
2023-04-20T19:27:09.124Z,6.42
2023-04-20T19:29:38.214Z,6.33
2023-04-20T19:32:06.445Z,6.21
2023-04-20T19:34:34.223Z,6.20
2023-04-20T19:37:01.982Z,6.14
2023-04-20T19:39:30.216Z,6.15
2023-04-20T19:41:58.494Z,6.15
2023-04-20T19:44:26.458Z,6.17
2023-04-20T19:46:55.599Z,6.13
2023-04-20T19:49:23.598Z,6.13
2023-04-20T19:51:51.356Z,6.01
2023-04-20T19:54:19.109Z,5.91
2023-04-20T19:56:49.830Z,5.87
2023-04-20T19:59:17.995Z,5.80
2023-04-20T20:01:46.187Z,5.80
2023-04-20T20:04:15.533Z,5.90
2023-04-20T20:06:44.010Z,5.90
2023-04-20T20:09:11.799Z,5.85
2023-04-20T20:11:39.548Z,5.88
2023-04-20T20:14:07.701Z,5.79
2023-04-20T20:16:36.118Z,5.72
2023-04-20T20:19:04.029Z,5.69
2023-04-20T20:21:33.212Z,5.66
2023-04-20T20:24:00.960Z,5.69
2023-04-20T20:26:28.964Z,5.66
2023-04-20T20:28:56.701Z,5.63
2023-04-20T20:31:24.660Z,5.59
2023-04-20T20:33:52.481Z,5.60
2023-04-20T20:36:20.381Z,5.60
2023-04-20T20:38:49.500Z,5.63
2023-04-20T20:41:18.377Z,5.61
2023-04-20T20:43:46.258Z,5.62
2023-04-20T20:46:14.270Z,5.63
2023-04-20T20:48:42.102Z,5.61
2023-04-20T20:51:09.842Z,5.59
2023-04-20T20:53:37.606Z,5.53
2023-04-20T20:56:07.100Z,5.52
2023-04-20T20:58:35.025Z,5.49
2023-04-20T21:01:02.876Z,5.47
2023-04-20T21:03:31.370Z,5.52
2023-04-20T21:05:59.270Z,5.53
2023-04-20T21:08:27.091Z,5.48
2023-04-20T21:10:54.851Z,5.46
2023-04-20T21:13:23.992Z,5.48
2023-04-20T21:15:51.938Z,5.48
2023-04-20T21:18:19.825Z,5.46
2023-04-20T21:20:47.551Z,5.50
2023-04-20T21:23:15.451Z,5.52
2023-04-20T21:25:43.327Z,5.52
2023-04-20T21:28:11.065Z,5.52
2023-04-20T21:30:40.310Z,5.49
2023-04-20T21:33:08.143Z,5.50
2023-04-20T21:35:36.079Z,5.55
2023-04-20T21:38:04.755Z,5.58
2023-04-20T21:40:34.257Z,5.62
2023-04-20T21:43:02.560Z,5.66
2023-04-20T21:45:30.631Z,5.71
2023-04-20T21:47:59.993Z,5.70
2023-04-20T21:50:28.596Z,5.69
2023-04-20T21:52:56.980Z,5.75
2023-04-20T21:55:25.084Z,5.75
2023-04-20T21:57:52.834Z,5.74
2023-04-20T22:00:21.180Z,5.74
2023-04-20T22:02:50.331Z,5.75
2023-04-20T22:05:20.136Z,5.82
2023-04-20T22:07:47.927Z,5.84
2023-04-20T22:10:16.229Z,5.88
2023-04-20T22:12:44.341Z,5.88
2023-04-20T22:15:14.698Z,5.86
2023-04-20T22:17:45.637Z,5.85
2023-04-20T22:20:14.172Z,5.87
2023-04-20T22:22:43.610Z,5.83
2023-04-20T22:25:11.651Z,5.88
2023-04-20T22:27:39.952Z,5.88
2023-04-20T22:30:09.835Z,5.90
2023-04-20T22:32:37.952Z,5.89
2023-04-20T22:35:07.208Z,5.86
2023-04-20T22:37:35.788Z,5.87
2023-04-20T22:40:07.596Z,5.84
2023-04-20T22:42:36.080Z,5.85
2023-04-20T22:45:04.693Z,5.85
2023-04-20T22:47:32.609Z,5.81
2023-04-20T22:50:01.727Z,5.78
2023-04-20T22:52:30.940Z,5.78
2023-04-20T22:54:58.964Z,5.83
2023-04-20T22:57:28.176Z,5.85
2023-04-20T22:59:55.993Z,5.82
2023-04-20T23:02:24.252Z,5.85
2023-04-20T23:04:52.714Z,5.85
2023-04-20T23:07:21.652Z,5.88
2023-04-20T23:09:49.492Z,5.87
2023-04-20T23:12:18.316Z,5.87
2023-04-20T23:14:48.081Z,5.86
2023-04-20T23:17:16.182Z,5.82
2023-04-20T23:19:43.919Z,5.80
2023-04-20T23:22:12.076Z,5.72
2023-04-20T23:24:39.931Z,5.75
2023-04-20T23:27:07.738Z,5.74
2023-04-20T23:29:36.120Z,5.76
2023-04-20T23:32:06.010Z,5.73
2023-04-20T23:34:33.840Z,5.68
2023-04-20T23:37:02.149Z,5.67
2023-04-20T23:39:30.265Z,5.63
2023-04-20T23:41:58.073Z,5.61
2023-04-20T23:44:26.335Z,5.63
2023-04-20T23:46:54.187Z,5.62
2023-04-20T23:49:23.346Z,5.55
2023-04-20T23:51:51.557Z,5.52
2023-04-20T23:54:19.871Z,5.45
2023-04-20T23:56:47.963Z,5.39
2023-04-20T23:59:16.357Z,5.38
